sensor_id;sensor_type;location;lat;lon;timestamp;P1;durP1;ratioP1;P2;durP2;ratioP2
19808;SDS011;48538;32.784;-96.802;2023-06-22T00:00:58;26.95;;;17.60;;
19808;SDS011;48538;32.784;-96.802;2023-06-22T00:03:25;30.52;;;19.13;;
19808;SDS011;48538;32.784;-96.802;2023-06-22T00:05:52;27.48;;;17.98;;
19808;SDS011;48538;32.784;-96.802;2023-06-22T00:08:19;26.00;;;17.83;;
19808;SDS011;48538;32.784;-96.802;2023-06-22T00:10:45;27.33;;;17.05;;
19808;SDS011;48538;32.784;-96.802;2023-06-22T00:13:13;24.15;;;16.65;;
19808;SDS011;48538;32.784;-96.802;2023-06-22T00:15:41;27.10;;;18.08;;
19808;SDS011;48538;32.784;-96.802;2023-06-22T00:18:08;25.08;;;17.80;;
19808;SDS011;48538;32.784;-96.802;2023-06-22T00:20:35;26.42;;;17.10;;
19808;SDS011;48538;32.784;-96.802;2023-06-22T00:23:05;26.77;;;17.58;;
19808;SDS011;48538;32.784;-96.802;2023-06-22T00:25:38;24.80;;;16.52;;
19808;SDS011;48538;32.784;-96.802;2023-06-22T00:28:07;21.25;;;16.08;;
19808;SDS011;48538;32.784;-96.802;2023-06-22T00:30:34;21.15;;;15.55;;
19808;SDS011;48538;32.784;-96.802;2023-06-22T00:33:00;21.38;;;16.40;;
19808;SDS011;48538;32.784;-96.802;2023-06-22T00:35:27;21.52;;;15.43;;
19808;SDS011;48538;32.784;-96.802;2023-06-22T00:37:56;22.35;;;16.40;;
19808;SDS011;48538;32.784;-96.802;2023-06-22T00:40:31;22.45;;;15.23;;
19808;SDS011;48538;32.784;-96.802;2023-06-22T00:42:58;24.63;;;16.33;;
19808;SDS011;48538;32.784;-96.802;2023-06-22T00:45:25;23.58;;;16.50;;
19808;SDS011;48538;32.784;-96.802;2023-06-22T00:47:52;24.77;;;16.25;;
19808;SDS011;48538;32.784;-96.802;2023-06-22T00:50:21;24.45;;;16.48;;
19808;SDS011;48538;32.784;-96.802;2023-06-22T00:52:51;22.48;;;15.85;;
19808;SDS011;48538;32.784;-96.802;2023-06-22T00:55:19;21.73;;;15.68;;
19808;SDS011;48538;32.784;-96.802;2023-06-22T00:57:46;27.55;;;16.27;;
19808;SDS011;48538;32.784;-96.802;2023-06-22T01:00:14;20.55;;;15.20;;
19808;SDS011;48538;32.784;-96.802;2023-06-22T01:02:44;21.95;;;15.40;;
19808;SDS011;48538;32.784;-96.802;2023-06-22T01:05:14;24.10;;;14.55;;
19808;SDS011;48538;32.784;-96.802;2023-06-22T01:07:44;21.15;;;15.10;;
19808;SDS011;48538;32.784;-96.802;2023-06-22T01:13:28;19.98;;;14.70;;
19808;SDS011;48538;32.784;-96.802;2023-06-22T01:16:05;23.15;;;14.70;;
19808;SDS011;48538;32.784;-96.802;2023-06-22T01:18:34;18.75;;;13.48;;
19808;SDS011;48538;32.784;-96.802;2023-06-22T01:21:02;19.45;;;13.40;;
19808;SDS011;48538;32.784;-96.802;2023-06-22T01:26:39;20.00;;;13.95;;
19808;SDS011;48538;32.784;-96.802;2023-06-22T01:29:08;17.15;;;12.85;;
19808;SDS011;48538;32.784;-96.802;2023-06-22T01:31:39;20.42;;;13.77;;
19808;SDS011;48538;32.784;-96.802;2023-06-22T01:34:07;18.30;;;12.63;;
19808;SDS011;48538;32.784;-96.802;2023-06-22T01:36:35;16.20;;;12.27;;
19808;SDS011;48538;32.784;-96.802;2023-06-22T01:39:02;18.13;;;12.63;;
19808;SDS011;48538;32.784;-96.802;2023-06-22T01:41:30;17.23;;;13.38;;
19808;SDS011;48538;32.784;-96.802;2023-06-22T01:43:59;17.95;;;13.07;;
19808;SDS011;48538;32.784;-96.802;2023-06-22T01:46:26;19.40;;;14.00;;
19808;SDS011;48538;32.784;-96.802;2023-06-22T01:48:53;18.83;;;12.07;;
19808;SDS011;48538;32.784;-96.802;2023-06-22T01:51:19;19.40;;;13.43;;
19808;SDS011;48538;32.784;-96.802;2023-06-22T01:53:46;18.77;;;13.30;;
19808;SDS011;48538;32.784;-96.802;2023-06-22T01:56:13;16.92;;;12.98;;
19808;SDS011;48538;32.784;-96.802;2023-06-22T01:58:48;18.13;;;12.77;;
19808;SDS011;48538;32.784;-96.802;2023-06-22T02:01:42;17.15;;;12.50;;
19808;SDS011;48538;32.784;-96.802;2023-06-22T02:04:24;19.83;;;12.85;;
19808;SDS011;48538;32.784;-96.802;2023-06-22T02:06:58;22.15;;;13.15;;
19808;SDS011;48538;32.784;-96.802;2023-06-22T02:09:27;20.15;;;12.68;;
19808;SDS011;48538;32.784;-96.802;2023-06-22T02:11:55;18.42;;;12.82;;
19808;SDS011;48538;32.784;-96.802;2023-06-22T02:14:24;19.52;;;12.98;;
19808;SDS011;48538;32.784;-96.802;2023-06-22T02:16:51;20.15;;;12.68;;
19808;SDS011;48538;32.784;-96.802;2023-06-22T02:19:22;18.70;;;13.27;;
19808;SDS011;48538;32.784;-96.802;2023-06-22T02:21:49;20.95;;;14.15;;
19808;SDS011;48538;32.784;-96.802;2023-06-22T02:24:16;18.83;;;13.52;;
19808;SDS011;48538;32.784;-96.802;2023-06-22T02:26:42;18.48;;;12.07;;
19808;SDS011;48538;32.784;-96.802;2023-06-22T02:29:10;19.95;;;13.32;;
19808;SDS011;48538;32.784;-96.802;2023-06-22T02:31:37;22.58;;;14.18;;
19808;SDS011;48538;32.784;-96.802;2023-06-22T02:34:03;18.83;;;13.38;;
19808;SDS011;48538;32.784;-96.802;2023-06-22T02:36:29;17.05;;;12.65;;
19808;SDS011;48538;32.784;-96.802;2023-06-22T02:38:56;19.95;;;13.23;;
19808;SDS011;48538;32.784;-96.802;2023-06-22T02:41:24;18.63;;;13.20;;
19808;SDS011;48538;32.784;-96.802;2023-06-22T02:43:50;17.65;;;13.30;;
19808;SDS011;48538;32.784;-96.802;2023-06-22T02:46:16;20.05;;;13.60;;
19808;SDS011;48538;32.784;-96.802;2023-06-22T02:48:43;18.23;;;13.38;;
19808;SDS011;48538;32.784;-96.802;2023-06-22T02:51:09;18.88;;;13.90;;
19808;SDS011;48538;32.784;-96.802;2023-06-22T02:53:35;21.80;;;13.82;;
19808;SDS011;48538;32.784;-96.802;2023-06-22T02:56:02;18.15;;;13.20;;
19808;SDS011;48538;32.784;-96.802;2023-06-22T02:58:30;18.83;;;13.15;;
19808;SDS011;48538;32.784;-96.802;2023-06-22T03:01:04;18.77;;;13.23;;
19808;SDS011;48538;32.784;-96.802;2023-06-22T03:03:35;18.77;;;13.05;;
19808;SDS011;48538;32.784;-96.802;2023-06-22T03:06:01;20.52;;;13.73;;
19808;SDS011;48538;32.784;-96.802;2023-06-22T03:08:28;23.83;;;14.00;;
19808;SDS011;48538;32.784;-96.802;2023-06-22T03:10:54;22.55;;;14.05;;
19808;SDS011;48538;32.784;-96.802;2023-06-22T03:13:21;20.52;;;13.52;;
19808;SDS011;48538;32.784;-96.802;2023-06-22T03:15:48;19.15;;;13.52;;
19808;SDS011;48538;32.784;-96.802;2023-06-22T03:18:14;18.77;;;12.95;;
19808;SDS011;48538;32.784;-96.802;2023-06-22T03:20:41;19.90;;;12.85;;
19808;SDS011;48538;32.784;-96.802;2023-06-22T03:23:07;17.42;;;13.18;;
19808;SDS011;48538;32.784;-96.802;2023-06-22T03:25:34;18.30;;;13.32;;
19808;SDS011;48538;32.784;-96.802;2023-06-22T03:28:00;16.45;;;12.20;;
19808;SDS011;48538;32.784;-96.802;2023-06-22T03:30:27;18.15;;;13.15;;
19808;SDS011;48538;32.784;-96.802;2023-06-22T03:32:53;20.40;;;14.13;;
19808;SDS011;48538;32.784;-96.802;2023-06-22T03:35:19;18.83;;;12.57;;
19808;SDS011;48538;32.784;-96.802;2023-06-22T03:37:46;17.95;;;12.95;;
19808;SDS011;48538;32.784;-96.802;2023-06-22T03:40:12;18.67;;;12.77;;
19808;SDS011;48538;32.784;-96.802;2023-06-22T03:42:38;17.45;;;12.43;;
19808;SDS011;48538;32.784;-96.802;2023-06-22T03:45:05;17.60;;;12.68;;
19808;SDS011;48538;32.784;-96.802;2023-06-22T03:47:32;17.15;;;11.90;;
19808;SDS011;48538;32.784;-96.802;2023-06-22T03:49:59;17.98;;;12.85;;
19808;SDS011;48538;32.784;-96.802;2023-06-22T03:52:25;17.30;;;12.77;;
19808;SDS011;48538;32.784;-96.802;2023-06-22T03:54:51;17.48;;;11.85;;
19808;SDS011;48538;32.784;-96.802;2023-06-22T03:57:18;17.48;;;12.52;;
19808;SDS011;48538;32.784;-96.802;2023-06-22T03:59:44;15.38;;;11.52;;
19808;SDS011;48538;32.784;-96.802;2023-06-22T04:02:10;18.38;;;12.02;;
19808;SDS011;48538;32.784;-96.802;2023-06-22T04:04:36;18.63;;;12.77;;
19808;SDS011;48538;32.784;-96.802;2023-06-22T04:07:04;17.20;;;12.52;;
19808;SDS011;48538;32.784;-96.802;2023-06-22T04:09:30;17.30;;;12.38;;
19808;SDS011;48538;32.784;-96.802;2023-06-22T04:11:57;18.85;;;12.32;;
19808;SDS011;48538;32.784;-96.802;2023-06-22T04:14:23;17.48;;;12.68;;
19808;SDS011;48538;32.784;-96.802;2023-06-22T04:16:49;18.50;;;11.95;;
19808;SDS011;48538;32.784;-96.802;2023-06-22T04:19:17;18.85;;;12.65;;
19808;SDS011;48538;32.784;-96.802;2023-06-22T04:21:43;16.60;;;11.73;;
19808;SDS011;48538;32.784;-96.802;2023-06-22T04:24:10;18.25;;;12.50;;
19808;SDS011;48538;32.784;-96.802;2023-06-22T04:26:37;19.35;;;12.93;;
19808;SDS011;48538;32.784;-96.802;2023-06-22T04:29:03;16.23;;;11.85;;
19808;SDS011;48538;32.784;-96.802;2023-06-22T04:31:34;19.30;;;12.25;;
19808;SDS011;48538;32.784;-96.802;2023-06-22T04:34:03;19.77;;;11.65;;
19808;SDS011;48538;32.784;-96.802;2023-06-22T04:36:35;19.90;;;12.45;;
19808;SDS011;48538;32.784;-96.802;2023-06-22T04:39:06;19.00;;;12.98;;
19808;SDS011;48538;32.784;-96.802;2023-06-22T04:41:38;16.48;;;12.23;;
19808;SDS011;48538;32.784;-96.802;2023-06-22T04:44:15;18.20;;;12.70;;
19808;SDS011;48538;32.784;-96.802;2023-06-22T04:46:53;17.08;;;12.38;;
19808;SDS011;48538;32.784;-96.802;2023-06-22T04:49:29;15.77;;;11.80;;
19808;SDS011;48538;32.784;-96.802;2023-06-22T04:52:00;16.50;;;12.07;;
19808;SDS011;48538;32.784;-96.802;2023-06-22T04:54:28;19.33;;;12.85;;
19808;SDS011;48538;32.784;-96.802;2023-06-22T04:56:54;16.42;;;12.13;;
19808;SDS011;48538;32.784;-96.802;2023-06-22T04:59:24;20.92;;;12.95;;
19808;SDS011;48538;32.784;-96.802;2023-06-22T05:01:58;18.67;;;12.50;;
19808;SDS011;48538;32.784;-96.802;2023-06-22T05:04:26;17.20;;;12.52;;
19808;SDS011;48538;32.784;-96.802;2023-06-22T05:07:01;18.85;;;12.52;;
19808;SDS011;48538;32.784;-96.802;2023-06-22T05:09:29;19.45;;;12.25;;
19808;SDS011;48538;32.784;-96.802;2023-06-22T05:11:55;19.15;;;12.90;;
19808;SDS011;48538;32.784;-96.802;2023-06-22T05:14:22;18.33;;;13.15;;
19808;SDS011;48538;32.784;-96.802;2023-06-22T05:16:48;19.35;;;12.68;;
19808;SDS011;48538;32.784;-96.802;2023-06-22T05:19:17;21.77;;;13.60;;
19808;SDS011;48538;32.784;-96.802;2023-06-22T05:21:43;18.00;;;12.65;;
19808;SDS011;48538;32.784;-96.802;2023-06-22T05:24:09;17.92;;;12.70;;
19808;SDS011;48538;32.784;-96.802;2023-06-22T05:26:36;17.00;;;12.43;;
19808;SDS011;48538;32.784;-96.802;2023-06-22T05:29:02;20.17;;;12.63;;
19808;SDS011;48538;32.784;-96.802;2023-06-22T05:31:29;18.83;;;12.40;;
19808;SDS011;48538;32.784;-96.802;2023-06-22T05:33:55;17.25;;;12.18;;
19808;SDS011;48538;32.784;-96.802;2023-06-22T05:36:22;19.98;;;13.38;;
19808;SDS011;48538;32.784;-96.802;2023-06-22T05:38:51;17.70;;;12.85;;
19808;SDS011;48538;32.784;-96.802;2023-06-22T05:41:18;19.20;;;12.63;;
19808;SDS011;48538;32.784;-96.802;2023-06-22T05:43:44;18.13;;;12.80;;
19808;SDS011;48538;32.784;-96.802;2023-06-22T05:46:11;18.70;;;13.05;;
19808;SDS011;48538;32.784;-96.802;2023-06-22T05:48:37;21.15;;;11.93;;
19808;SDS011;48538;32.784;-96.802;2023-06-22T05:51:03;17.08;;;12.60;;
19808;SDS011;48538;32.784;-96.802;2023-06-22T05:53:30;21.50;;;12.98;;
19808;SDS011;48538;32.784;-96.802;2023-06-22T05:55:56;19.08;;;12.63;;
19808;SDS011;48538;32.784;-96.802;2023-06-22T05:58:22;17.30;;;12.65;;
19808;SDS011;48538;32.784;-96.802;2023-06-22T06:00:48;18.27;;;12.90;;
19808;SDS011;48538;32.784;-96.802;2023-06-22T06:03:15;19.23;;;13.27;;
19808;SDS011;48538;32.784;-96.802;2023-06-22T06:05:42;17.70;;;13.07;;
19808;SDS011;48538;32.784;-96.802;2023-06-22T06:08:09;21.00;;;13.82;;
19808;SDS011;48538;32.784;-96.802;2023-06-22T06:10:36;17.40;;;12.40;;
19808;SDS011;48538;32.784;-96.802;2023-06-22T06:13:03;20.23;;;13.93;;
19808;SDS011;48538;32.784;-96.802;2023-06-22T06:15:32;18.92;;;13.30;;
19808;SDS011;48538;32.784;-96.802;2023-06-22T06:17:59;16.48;;;12.18;;
19808;SDS011;48538;32.784;-96.802;2023-06-22T06:20:27;20.98;;;13.38;;
19808;SDS011;48538;32.784;-96.802;2023-06-22T06:22:53;17.75;;;12.65;;
19808;SDS011;48538;32.784;-96.802;2023-06-22T06:25:19;21.58;;;13.73;;
19808;SDS011;48538;32.784;-96.802;2023-06-22T06:27:47;17.88;;;12.48;;
19808;SDS011;48538;32.784;-96.802;2023-06-22T06:30:16;23.05;;;13.23;;
19808;SDS011;48538;32.784;-96.802;2023-06-22T06:32:44;18.83;;;12.77;;
19808;SDS011;48538;32.784;-96.802;2023-06-22T06:35:12;20.17;;;13.75;;
19808;SDS011;48538;32.784;-96.802;2023-06-22T06:37:40;22.00;;;13.85;;
19808;SDS011;48538;32.784;-96.802;2023-06-22T06:40:08;21.70;;;13.32;;
19808;SDS011;48538;32.784;-96.802;2023-06-22T06:42:39;22.50;;;13.70;;
19808;SDS011;48538;32.784;-96.802;2023-06-22T06:45:07;19.00;;;12.93;;
19808;SDS011;48538;32.784;-96.802;2023-06-22T06:47:34;19.75;;;13.50;;
19808;SDS011;48538;32.784;-96.802;2023-06-22T06:50:00;22.02;;;13.95;;
19808;SDS011;48538;32.784;-96.802;2023-06-22T06:52:27;18.63;;;13.45;;
19808;SDS011;48538;32.784;-96.802;2023-06-22T06:54:53;22.88;;;14.88;;
19808;SDS011;48538;32.784;-96.802;2023-06-22T06:57:20;19.80;;;14.07;;
19808;SDS011;48538;32.784;-96.802;2023-06-22T06:59:48;22.92;;;14.77;;
19808;SDS011;48538;32.784;-96.802;2023-06-22T07:02:15;18.23;;;12.90;;
19808;SDS011;48538;32.784;-96.802;2023-06-22T07:04:41;23.60;;;14.13;;
19808;SDS011;48538;32.784;-96.802;2023-06-22T07:07:07;19.55;;;14.25;;
19808;SDS011;48538;32.784;-96.802;2023-06-22T07:09:34;23.15;;;14.90;;
19808;SDS011;48538;32.784;-96.802;2023-06-22T07:12:00;18.73;;;13.98;;
19808;SDS011;48538;32.784;-96.802;2023-06-22T07:14:26;20.45;;;14.73;;
19808;SDS011;48538;32.784;-96.802;2023-06-22T07:16:53;21.38;;;14.00;;
19808;SDS011;48538;32.784;-96.802;2023-06-22T07:19:25;20.80;;;14.18;;
19808;SDS011;48538;32.784;-96.802;2023-06-22T07:21:53;19.63;;;13.55;;
19808;SDS011;48538;32.784;-96.802;2023-06-22T07:24:20;25.15;;;15.05;;
19808;SDS011;48538;32.784;-96.802;2023-06-22T07:26:47;21.25;;;14.00;;
19808;SDS011;48538;32.784;-96.802;2023-06-22T07:29:18;21.25;;;14.50;;
19808;SDS011;48538;32.784;-96.802;2023-06-22T07:31:46;21.08;;;14.25;;
19808;SDS011;48538;32.784;-96.802;2023-06-22T07:34:13;19.42;;;14.02;;
19808;SDS011;48538;32.784;-96.802;2023-06-22T07:36:39;21.02;;;13.68;;
19808;SDS011;48538;32.784;-96.802;2023-06-22T07:39:05;22.70;;;14.25;;
19808;SDS011;48538;32.784;-96.802;2023-06-22T07:41:32;23.67;;;14.65;;
19808;SDS011;48538;32.784;-96.802;2023-06-22T07:43:58;21.75;;;13.93;;
19808;SDS011;48538;32.784;-96.802;2023-06-22T07:46:24;20.63;;;14.38;;
19808;SDS011;48538;32.784;-96.802;2023-06-22T07:48:51;22.23;;;14.10;;
19808;SDS011;48538;32.784;-96.802;2023-06-22T07:51:17;21.73;;;15.25;;
19808;SDS011;48538;32.784;-96.802;2023-06-22T07:53:44;22.85;;;14.38;;
19808;SDS011;48538;32.784;-96.802;2023-06-22T07:56:10;19.80;;;14.18;;
19808;SDS011;48538;32.784;-96.802;2023-06-22T07:58:37;20.15;;;15.20;;
19808;SDS011;48538;32.784;-96.802;2023-06-22T08:01:03;26.02;;;14.45;;
19808;SDS011;48538;32.784;-96.802;2023-06-22T08:03:30;21.63;;;13.27;;
19808;SDS011;48538;32.784;-96.802;2023-06-22T08:05:56;22.70;;;13.77;;
19808;SDS011;48538;32.784;-96.802;2023-06-22T08:08:22;19.73;;;13.70;;
19808;SDS011;48538;32.784;-96.802;2023-06-22T08:10:49;19.95;;;13.73;;
19808;SDS011;48538;32.784;-96.802;2023-06-22T08:13:15;19.58;;;13.70;;
19808;SDS011;48538;32.784;-96.802;2023-06-22T08:15:41;21.13;;;14.05;;
19808;SDS011;48538;32.784;-96.802;2023-06-22T08:18:08;19.27;;;13.70;;
19808;SDS011;48538;32.784;-96.802;2023-06-22T08:20:34;19.25;;;13.93;;
19808;SDS011;48538;32.784;-96.802;2023-06-22T08:23:00;25.20;;;14.77;;
19808;SDS011;48538;32.784;-96.802;2023-06-22T08:25:32;21.08;;;13.60;;
19808;SDS011;48538;32.784;-96.802;2023-06-22T08:27:59;19.55;;;13.90;;
19808;SDS011;48538;32.784;-96.802;2023-06-22T08:30:26;19.77;;;13.88;;
19808;SDS011;48538;32.784;-96.802;2023-06-22T08:32:52;20.08;;;13.63;;
19808;SDS011;48538;32.784;-96.802;2023-06-22T08:35:21;21.70;;;13.52;;
19808;SDS011;48538;32.784;-96.802;2023-06-22T08:37:48;18.58;;;13.07;;
19808;SDS011;48538;32.784;-96.802;2023-06-22T08:40:19;19.75;;;13.75;;
19808;SDS011;48538;32.784;-96.802;2023-06-22T08:42:46;19.83;;;14.02;;
19808;SDS011;48538;32.784;-96.802;2023-06-22T08:45:13;17.83;;;12.90;;
19808;SDS011;48538;32.784;-96.802;2023-06-22T08:47:40;20.10;;;14.23;;
19808;SDS011;48538;32.784;-96.802;2023-06-22T08:50:08;19.23;;;12.82;;
19808;SDS011;48538;32.784;-96.802;2023-06-22T08:52:35;18.42;;;12.68;;
19808;SDS011;48538;32.784;-96.802;2023-06-22T08:55:02;16.73;;;12.68;;
19808;SDS011;48538;32.784;-96.802;2023-06-22T08:57:29;19.58;;;12.93;;
19808;SDS011;48538;32.784;-96.802;2023-06-22T08:59:57;22.67;;;13.20;;
19808;SDS011;48538;32.784;-96.802;2023-06-22T09:02:27;19.83;;;14.32;;
19808;SDS011;48538;32.784;-96.802;2023-06-22T09:04:58;19.10;;;13.80;;
19808;SDS011;48538;32.784;-96.802;2023-06-22T09:07:25;20.17;;;13.13;;
19808;SDS011;48538;32.784;-96.802;2023-06-22T09:09:51;19.02;;;12.73;;
19808;SDS011;48538;32.784;-96.802;2023-06-22T09:12:18;21.10;;;14.30;;
19808;SDS011;48538;32.784;-96.802;2023-06-22T09:14:51;18.52;;;12.88;;
19808;SDS011;48538;32.784;-96.802;2023-06-22T09:17:17;19.67;;;13.70;;
19808;SDS011;48538;32.784;-96.802;2023-06-22T09:19:43;22.02;;;13.00;;
19808;SDS011;48538;32.784;-96.802;2023-06-22T09:22:10;18.00;;;12.35;;
19808;SDS011;48538;32.784;-96.802;2023-06-22T09:24:36;18.13;;;12.95;;
19808;SDS011;48538;32.784;-96.802;2023-06-22T09:27:02;20.15;;;14.18;;
19808;SDS011;48538;32.784;-96.802;2023-06-22T09:29:29;19.42;;;13.38;;
19808;SDS011;48538;32.784;-96.802;2023-06-22T09:31:58;20.83;;;13.38;;
19808;SDS011;48538;32.784;-96.802;2023-06-22T09:34:25;19.25;;;12.63;;
19808;SDS011;48538;32.784;-96.802;2023-06-22T09:36:51;20.92;;;12.65;;
19808;SDS011;48538;32.784;-96.802;2023-06-22T09:39:18;20.45;;;13.93;;
19808;SDS011;48538;32.784;-96.802;2023-06-22T09:41:44;20.45;;;13.77;;
19808;SDS011;48538;32.784;-96.802;2023-06-22T09:44:10;19.58;;;13.15;;
19808;SDS011;48538;32.784;-96.802;2023-06-22T09:46:37;18.75;;;13.60;;
19808;SDS011;48538;32.784;-96.802;2023-06-22T09:49:03;18.67;;;12.98;;
19808;SDS011;48538;32.784;-96.802;2023-06-22T09:51:29;18.45;;;13.02;;
19808;SDS011;48538;32.784;-96.802;2023-06-22T09:53:56;17.90;;;12.63;;
19808;SDS011;48538;32.784;-96.802;2023-06-22T09:56:23;18.52;;;13.07;;
19808;SDS011;48538;32.784;-96.802;2023-06-22T09:58:49;19.08;;;13.55;;
19808;SDS011;48538;32.784;-96.802;2023-06-22T10:01:18;19.83;;;13.60;;
19808;SDS011;48538;32.784;-96.802;2023-06-22T10:03:45;19.05;;;13.50;;
19808;SDS011;48538;32.784;-96.802;2023-06-22T10:06:12;22.27;;;13.23;;
19808;SDS011;48538;32.784;-96.802;2023-06-22T10:08:38;21.10;;;13.55;;
19808;SDS011;48538;32.784;-96.802;2023-06-22T10:11:06;19.83;;;13.32;;
19808;SDS011;48538;32.784;-96.802;2023-06-22T10:13:32;17.73;;;12.98;;
19808;SDS011;48538;32.784;-96.802;2023-06-22T10:15:58;20.25;;;13.63;;
19808;SDS011;48538;32.784;-96.802;2023-06-22T10:18:24;19.02;;;12.57;;
19808;SDS011;48538;32.784;-96.802;2023-06-22T10:20:52;17.90;;;12.63;;
19808;SDS011;48538;32.784;-96.802;2023-06-22T10:23:19;20.02;;;13.02;;
19808;SDS011;48538;32.784;-96.802;2023-06-22T10:25:45;18.27;;;13.02;;
19808;SDS011;48538;32.784;-96.802;2023-06-22T10:28:12;18.77;;;13.55;;
19808;SDS011;48538;32.784;-96.802;2023-06-22T10:30:39;20.23;;;13.35;;
19808;SDS011;48538;32.784;-96.802;2023-06-22T10:33:10;20.50;;;14.10;;
19808;SDS011;48538;32.784;-96.802;2023-06-22T10:35:36;19.65;;;13.15;;
19808;SDS011;48538;32.784;-96.802;2023-06-22T10:38:03;20.90;;;14.07;;
19808;SDS011;48538;32.784;-96.802;2023-06-22T10:40:30;22.58;;;14.07;;
19808;SDS011;48538;32.784;-96.802;2023-06-22T10:42:56;18.13;;;13.18;;
19808;SDS011;48538;32.784;-96.802;2023-06-22T10:45:23;16.80;;;12.23;;
19808;SDS011;48538;32.784;-96.802;2023-06-22T10:47:49;18.60;;;13.00;;
19808;SDS011;48538;32.784;-96.802;2023-06-22T10:50:15;18.30;;;13.25;;
19808;SDS011;48538;32.784;-96.802;2023-06-22T10:52:41;19.50;;;13.52;;
19808;SDS011;48538;32.784;-96.802;2023-06-22T10:55:08;22.98;;;14.18;;
19808;SDS011;48538;32.784;-96.802;2023-06-22T10:57:35;19.48;;;13.25;;
19808;SDS011;48538;32.784;-96.802;2023-06-22T11:00:02;19.83;;;12.80;;
19808;SDS011;48538;32.784;-96.802;2023-06-22T11:02:32;22.23;;;14.23;;
19808;SDS011;48538;32.784;-96.802;2023-06-22T11:04:58;19.80;;;13.75;;
19808;SDS011;48538;32.784;-96.802;2023-06-22T11:07:29;20.30;;;14.02;;
19808;SDS011;48538;32.784;-96.802;2023-06-22T11:09:55;20.08;;;14.10;;
19808;SDS011;48538;32.784;-96.802;2023-06-22T11:12:21;18.38;;;13.18;;
19808;SDS011;48538;32.784;-96.802;2023-06-22T11:14:48;20.33;;;14.35;;
19808;SDS011;48538;32.784;-96.802;2023-06-22T11:17:17;20.67;;;14.05;;
19808;SDS011;48538;32.784;-96.802;2023-06-22T11:19:44;21.55;;;13.55;;
19808;SDS011;48538;32.784;-96.802;2023-06-22T11:22:10;18.90;;;13.43;;
19808;SDS011;48538;32.784;-96.802;2023-06-22T11:24:36;20.02;;;13.07;;
19808;SDS011;48538;32.784;-96.802;2023-06-22T11:27:03;18.83;;;13.55;;
19808;SDS011;48538;32.784;-96.802;2023-06-22T11:29:29;19.98;;;14.07;;
19808;SDS011;48538;32.784;-96.802;2023-06-22T11:31:56;21.42;;;12.80;;
19808;SDS011;48538;32.784;-96.802;2023-06-22T11:34:22;19.55;;;12.95;;
19808;SDS011;48538;32.784;-96.802;2023-06-22T11:36:48;18.92;;;11.75;;
19808;SDS011;48538;32.784;-96.802;2023-06-22T11:39:15;18.95;;;12.85;;
19808;SDS011;48538;32.784;-96.802;2023-06-22T11:41:41;20.77;;;12.73;;
19808;SDS011;48538;32.784;-96.802;2023-06-22T11:44:07;18.27;;;12.57;;
19808;SDS011;48538;32.784;-96.802;2023-06-22T11:46:34;17.83;;;11.93;;
19808;SDS011;48538;32.784;-96.802;2023-06-22T11:49:00;16.30;;;11.80;;
19808;SDS011;48538;32.784;-96.802;2023-06-22T11:51:27;19.27;;;12.18;;
19808;SDS011;48538;32.784;-96.802;2023-06-22T11:53:53;16.27;;;11.70;;
19808;SDS011;48538;32.784;-96.802;2023-06-22T11:56:20;17.58;;;11.88;;
19808;SDS011;48538;32.784;-96.802;2023-06-22T11:58:46;16.00;;;11.68;;
19808;SDS011;48538;32.784;-96.802;2023-06-22T12:01:15;17.20;;;11.30;;
19808;SDS011;48538;32.784;-96.802;2023-06-22T12:03:41;15.77;;;11.43;;
19808;SDS011;48538;32.784;-96.802;2023-06-22T12:06:11;15.18;;;11.50;;
19808;SDS011;48538;32.784;-96.802;2023-06-22T12:08:37;16.02;;;11.07;;
19808;SDS011;48538;32.784;-96.802;2023-06-22T12:11:03;15.88;;;11.02;;
19808;SDS011;48538;32.784;-96.802;2023-06-22T12:13:30;16.33;;;10.98;;
19808;SDS011;48538;32.784;-96.802;2023-06-22T12:15:56;15.73;;;11.82;;
19808;SDS011;48538;32.784;-96.802;2023-06-22T12:18:22;16.05;;;11.70;;
19808;SDS011;48538;32.784;-96.802;2023-06-22T12:20:49;17.08;;;11.20;;
19808;SDS011;48538;32.784;-96.802;2023-06-22T12:23:15;14.20;;;10.85;;
19808;SDS011;48538;32.784;-96.802;2023-06-22T12:25:42;15.70;;;11.10;;
19808;SDS011;48538;32.784;-96.802;2023-06-22T12:28:10;16.80;;;11.68;;
19808;SDS011;48538;32.784;-96.802;2023-06-22T12:30:36;14.95;;;11.73;;
19808;SDS011;48538;32.784;-96.802;2023-06-22T12:33:02;15.00;;;10.95;;
19808;SDS011;48538;32.784;-96.802;2023-06-22T12:35:29;15.88;;;11.05;;
19808;SDS011;48538;32.784;-96.802;2023-06-22T12:37:55;18.15;;;11.30;;
19808;SDS011;48538;32.784;-96.802;2023-06-22T12:40:21;16.30;;;10.90;;
19808;SDS011;48538;32.784;-96.802;2023-06-22T12:42:48;16.02;;;10.77;;
19808;SDS011;48538;32.784;-96.802;2023-06-22T12:45:14;15.35;;;10.05;;
19808;SDS011;48538;32.784;-96.802;2023-06-22T12:47:41;16.88;;;10.38;;
19808;SDS011;48538;32.784;-96.802;2023-06-22T12:50:08;15.15;;;9.82;;
19808;SDS011;48538;32.784;-96.802;2023-06-22T12:52:36;13.32;;;9.45;;
19808;SDS011;48538;32.784;-96.802;2023-06-22T12:55:05;17.45;;;9.60;;
19808;SDS011;48538;32.784;-96.802;2023-06-22T12:57:32;15.75;;;9.60;;
19808;SDS011;48538;32.784;-96.802;2023-06-22T12:59:58;16.70;;;10.00;;
19808;SDS011;48538;32.784;-96.802;2023-06-22T13:02:26;15.95;;;9.50;;
19808;SDS011;48538;32.784;-96.802;2023-06-22T13:04:52;14.30;;;9.77;;
19808;SDS011;48538;32.784;-96.802;2023-06-22T13:07:18;12.63;;;9.27;;
19808;SDS011;48538;32.784;-96.802;2023-06-22T13:09:45;13.65;;;9.68;;
19808;SDS011;48538;32.784;-96.802;2023-06-22T13:12:11;15.13;;;9.35;;
19808;SDS011;48538;32.784;-96.802;2023-06-22T13:14:38;15.63;;;9.40;;
19808;SDS011;48538;32.784;-96.802;2023-06-22T13:17:04;15.13;;;9.35;;
19808;SDS011;48538;32.784;-96.802;2023-06-22T13:19:30;13.63;;;9.30;;
19808;SDS011;48538;32.784;-96.802;2023-06-22T13:21:58;13.18;;;8.95;;
19808;SDS011;48538;32.784;-96.802;2023-06-22T13:24:25;11.45;;;8.98;;
19808;SDS011;48538;32.784;-96.802;2023-06-22T13:26:51;10.85;;;8.43;;
19808;SDS011;48538;32.784;-96.802;2023-06-22T13:29:18;11.88;;;8.00;;
19808;SDS011;48538;32.784;-96.802;2023-06-22T13:31:44;10.73;;;8.15;;
19808;SDS011;48538;32.784;-96.802;2023-06-22T13:34:10;14.77;;;8.20;;
19808;SDS011;48538;32.784;-96.802;2023-06-22T13:36:37;11.55;;;7.40;;
19808;SDS011;48538;32.784;-96.802;2023-06-22T13:39:03;12.82;;;8.25;;
19808;SDS011;48538;32.784;-96.802;2023-06-22T13:41:30;10.63;;;8.10;;
19808;SDS011;48538;32.784;-96.802;2023-06-22T13:43:56;11.90;;;7.95;;
19808;SDS011;48538;32.784;-96.802;2023-06-22T13:46:22;13.18;;;7.38;;
19808;SDS011;48538;32.784;-96.802;2023-06-22T13:48:48;9.57;;;7.00;;
19808;SDS011;48538;32.784;-96.802;2023-06-22T13:51:15;11.35;;;7.63;;
19808;SDS011;48538;32.784;-96.802;2023-06-22T13:53:41;11.18;;;8.02;;
19808;SDS011;48538;32.784;-96.802;2023-06-22T13:56:07;10.40;;;7.07;;
19808;SDS011;48538;32.784;-96.802;2023-06-22T13:58:33;14.13;;;7.43;;
19808;SDS011;48538;32.784;-96.802;2023-06-22T14:01:00;8.70;;;6.50;;
19808;SDS011;48538;32.784;-96.802;2023-06-22T14:03:26;12.40;;;7.55;;
19808;SDS011;48538;32.784;-96.802;2023-06-22T14:05:52;10.75;;;6.80;;